< < Back
Terminal Aerodrome Forecast


Current Version              Previous Versions:   1  2  3  4  5  6  7  8  9  

Terminal Aerodrome Forecast

330
FTUS42 KCAE 272000 AAA
TAFAGS
TAF AMD
KAGS 272053Z 2721/2818 VRB04KT P6SM FEW060 SCT220
     FM280000 VRB03KT P6SM SKC
     FM280600 VRB03KT P6SM SCT250
     FM281500 06010KT P6SM BKN250=



Latest METAR

631
SAUS70 KWBC 280500 RRH
MTRAGS
METAR KAGS 280453Z AUTO 00000KT 10SM CLR 12/12 A2988 RMK AO2 SLP118
T01220117 402330106


USA.gov is the U.S. government's official web portal to all federal, state and local government web resources and services.